sensor_id;sensor_type;location;lat;lon;timestamp;temperature;humidity
53045;DHT22;38930;52.766;6.884;2024-01-15T00:01:56;1.20;99.90
53045;DHT22;38930;52.766;6.884;2024-01-15T00:04:25;1.20;99.90
53045;DHT22;38930;52.766;6.884;2024-01-15T00:06:50;1.20;99.90
53045;DHT22;38930;52.766;6.884;2024-01-15T00:09:16;1.20;99.90
53045;DHT22;38930;52.766;6.884;2024-01-15T00:11:42;1.20;99.90
53045;DHT22;38930;52.766;6.884;2024-01-15T00:14:08;1.20;99.90
53045;DHT22;38930;52.766;6.884;2024-01-15T00:16:34;1.20;99.90
53045;DHT22;38930;52.766;6.884;2024-01-15T00:18:59;1.20;99.90
53045;DHT22;38930;52.766;6.884;2024-01-15T00:21:25;1.20;99.90
53045;DHT22;38930;52.766;6.884;2024-01-15T00:23:50;1.20;99.90
53045;DHT22;38930;52.766;6.884;2024-01-15T00:26:16;1.10;99.90
53045;DHT22;38930;52.766;6.884;2024-01-15T00:28:42;1.20;99.90
53045;DHT22;38930;52.766;6.884;2024-01-15T00:31:08;1.20;99.90
53045;DHT22;38930;52.766;6.884;2024-01-15T00:33:33;1.20;99.90
53045;DHT22;38930;52.766;6.884;2024-01-15T00:35:59;1.20;99.90
53045;DHT22;38930;52.766;6.884;2024-01-15T00:38:25;1.30;99.90
53045;DHT22;38930;52.766;6.884;2024-01-15T00:40:50;1.20;99.90
53045;DHT22;38930;52.766;6.884;2024-01-15T00:43:16;1.20;99.90
53045;DHT22;38930;52.766;6.884;2024-01-15T00:45:43;1.20;99.90
53045;DHT22;38930;52.766;6.884;2024-01-15T00:48:09;1.30;99.90
53045;DHT22;38930;52.766;6.884;2024-01-15T00:50:35;1.30;99.90
53045;DHT22;38930;52.766;6.884;2024-01-15T00:53:00;1.50;99.90
53045;DHT22;38930;52.766;6.884;2024-01-15T00:55:26;1.30;99.90
53045;DHT22;38930;52.766;6.884;2024-01-15T00:57:52;1.30;99.90
53045;DHT22;38930;52.766;6.884;2024-01-15T01:00:18;1.30;99.90
53045;DHT22;38930;52.766;6.884;2024-01-15T01:02:43;1.30;99.90
53045;DHT22;38930;52.766;6.884;2024-01-15T01:05:09;1.30;99.90
53045;DHT22;38930;52.766;6.884;2024-01-15T01:07:34;1.30;99.90
53045;DHT22;38930;52.766;6.884;2024-01-15T01:10:00;1.40;99.90
53045;DHT22;38930;52.766;6.884;2024-01-15T01:12:26;1.40;99.90
53045;DHT22;38930;52.766;6.884;2024-01-15T01:14:51;1.40;99.90
53045;DHT22;38930;52.766;6.884;2024-01-15T01:17:17;1.40;99.90
53045;DHT22;38930;52.766;6.884;2024-01-15T01:19:42;1.40;99.90
53045;DHT22;38930;52.766;6.884;2024-01-15T01:22:08;1.40;99.90
53045;DHT22;38930;52.766;6.884;2024-01-15T01:24:34;1.40;99.90
53045;DHT22;38930;52.766;6.884;2024-01-15T01:26:59;1.50;99.90
53045;DHT22;38930;52.766;6.884;2024-01-15T01:29:25;1.50;99.90
53045;DHT22;38930;52.766;6.884;2024-01-15T01:31:51;1.50;99.90
53045;DHT22;38930;52.766;6.884;2024-01-15T01:34:17;1.50;99.90
53045;DHT22;38930;52.766;6.884;2024-01-15T01:36:43;1.50;99.90
53045;DHT22;38930;52.766;6.884;2024-01-15T01:39:09;1.50;99.90
53045;DHT22;38930;52.766;6.884;2024-01-15T01:41:35;1.50;99.90
53045;DHT22;38930;52.766;6.884;2024-01-15T01:44:00;1.50;99.90
53045;DHT22;38930;52.766;6.884;2024-01-15T01:46:27;1.50;99.90
53045;DHT22;38930;52.766;6.884;2024-01-15T01:48:53;1.50;99.90
53045;DHT22;38930;52.766;6.884;2024-01-15T01:51:21;1.50;99.90
53045;DHT22;38930;52.766;6.884;2024-01-15T01:53:48;1.50;99.90
53045;DHT22;38930;52.766;6.884;2024-01-15T01:56:15;1.40;99.90
53045;DHT22;38930;52.766;6.884;2024-01-15T01:58:41;1.50;99.90
53045;DHT22;38930;52.766;6.884;2024-01-15T02:01:06;1.40;99.90
53045;DHT22;38930;52.766;6.884;2024-01-15T02:03:32;1.40;99.90
53045;DHT22;38930;52.766;6.884;2024-01-15T02:05:59;1.40;99.90
53045;DHT22;38930;52.766;6.884;2024-01-15T02:08:26;1.40;99.90
53045;DHT22;38930;52.766;6.884;2024-01-15T02:10:51;1.40;99.90
53045;DHT22;38930;52.766;6.884;2024-01-15T02:13:18;1.40;99.90
53045;DHT22;38930;52.766;6.884;2024-01-15T02:15:44;1.40;99.90
53045;DHT22;38930;52.766;6.884;2024-01-15T02:18:09;1.30;99.90
53045;DHT22;38930;52.766;6.884;2024-01-15T02:20:35;1.30;99.90
53045;DHT22;38930;52.766;6.884;2024-01-15T02:23:09;1.30;99.90
53045;DHT22;38930;52.766;6.884;2024-01-15T02:25:40;1.30;99.90
53045;DHT22;38930;52.766;6.884;2024-01-15T02:28:06;1.30;99.90
53045;DHT22;38930;52.766;6.884;2024-01-15T02:30:37;1.20;99.90
53045;DHT22;38930;52.766;6.884;2024-01-15T02:33:03;1.20;99.90
53045;DHT22;38930;52.766;6.884;2024-01-15T02:35:29;1.20;99.90
53045;DHT22;38930;52.766;6.884;2024-01-15T02:37:54;1.20;99.90
53045;DHT22;38930;52.766;6.884;2024-01-15T02:40:20;1.20;99.90
53045;DHT22;38930;52.766;6.884;2024-01-15T02:42:45;1.10;99.90
53045;DHT22;38930;52.766;6.884;2024-01-15T02:45:11;1.10;99.90
53045;DHT22;38930;52.766;6.884;2024-01-15T02:47:37;1.10;99.90
53045;DHT22;38930;52.766;6.884;2024-01-15T02:50:02;1.10;99.90
53045;DHT22;38930;52.766;6.884;2024-01-15T02:52:28;1.10;99.90
53045;DHT22;38930;52.766;6.884;2024-01-15T02:54:54;1.10;99.90
53045;DHT22;38930;52.766;6.884;2024-01-15T02:57:19;1.10;99.90
53045;DHT22;38930;52.766;6.884;2024-01-15T02:59:45;1.10;99.90
53045;DHT22;38930;52.766;6.884;2024-01-15T03:02:10;1.10;99.90
53045;DHT22;38930;52.766;6.884;2024-01-15T03:04:36;1.10;99.90
53045;DHT22;38930;52.766;6.884;2024-01-15T03:07:01;1.10;99.90
53045;DHT22;38930;52.766;6.884;2024-01-15T03:09:27;1.10;99.90
53045;DHT22;38930;52.766;6.884;2024-01-15T03:11:53;1.20;99.90
53045;DHT22;38930;52.766;6.884;2024-01-15T03:14:18;1.20;99.90
53045;DHT22;38930;52.766;6.884;2024-01-15T03:16:45;1.20;99.90
53045;DHT22;38930;52.766;6.884;2024-01-15T03:19:11;1.20;99.90
53045;DHT22;38930;52.766;6.884;2024-01-15T03:21:36;1.20;99.90
53045;DHT22;38930;52.766;6.884;2024-01-15T03:24:02;1.30;99.90
53045;DHT22;38930;52.766;6.884;2024-01-15T03:26:28;1.30;99.90
53045;DHT22;38930;52.766;6.884;2024-01-15T03:28:53;1.30;99.90
53045;DHT22;38930;52.766;6.884;2024-01-15T03:31:19;1.30;99.90
53045;DHT22;38930;52.766;6.884;2024-01-15T03:33:45;1.30;99.90
53045;DHT22;38930;52.766;6.884;2024-01-15T03:36:10;1.30;99.90
53045;DHT22;38930;52.766;6.884;2024-01-15T03:38:40;1.30;99.90
53045;DHT22;38930;52.766;6.884;2024-01-15T03:41:06;1.30;99.90
53045;DHT22;38930;52.766;6.884;2024-01-15T03:43:31;1.30;99.90
53045;DHT22;38930;52.766;6.884;2024-01-15T03:45:57;1.30;99.90
53045;DHT22;38930;52.766;6.884;2024-01-15T03:48:23;1.20;99.90
53045;DHT22;38930;52.766;6.884;2024-01-15T03:50:48;1.20;99.90
53045;DHT22;38930;52.766;6.884;2024-01-15T03:53:14;1.20;99.90
53045;DHT22;38930;52.766;6.884;2024-01-15T03:55:39;1.20;99.90
53045;DHT22;38930;52.766;6.884;2024-01-15T03:58:05;1.20;99.90
53045;DHT22;38930;52.766;6.884;2024-01-15T04:00:30;1.20;99.90
53045;DHT22;38930;52.766;6.884;2024-01-15T04:02:56;1.20;99.90
53045;DHT22;38930;52.766;6.884;2024-01-15T04:05:21;1.20;99.90
53045;DHT22;38930;52.766;6.884;2024-01-15T04:07:47;1.20;99.90
53045;DHT22;38930;52.766;6.884;2024-01-15T04:10:13;1.20;99.90
53045;DHT22;38930;52.766;6.884;2024-01-15T04:12:38;1.30;99.90
53045;DHT22;38930;52.766;6.884;2024-01-15T04:15:04;1.30;99.90
53045;DHT22;38930;52.766;6.884;2024-01-15T04:17:30;1.30;99.90
53045;DHT22;38930;52.766;6.884;2024-01-15T04:19:55;1.40;99.90
53045;DHT22;38930;52.766;6.884;2024-01-15T04:22:21;1.40;99.90
53045;DHT22;38930;52.766;6.884;2024-01-15T04:24:47;1.40;99.90
53045;DHT22;38930;52.766;6.884;2024-01-15T04:27:12;1.40;99.90
53045;DHT22;38930;52.766;6.884;2024-01-15T04:29:38;1.40;99.90
53045;DHT22;38930;52.766;6.884;2024-01-15T04:32:05;1.30;99.90
53045;DHT22;38930;52.766;6.884;2024-01-15T04:34:30;1.30;99.90
53045;DHT22;38930;52.766;6.884;2024-01-15T04:36:56;1.30;99.90
53045;DHT22;38930;52.766;6.884;2024-01-15T04:39:21;1.30;99.90
53045;DHT22;38930;52.766;6.884;2024-01-15T04:41:47;1.30;99.90
53045;DHT22;38930;52.766;6.884;2024-01-15T04:44:13;1.30;99.90
53045;DHT22;38930;52.766;6.884;2024-01-15T04:46:39;1.30;99.90
53045;DHT22;38930;52.766;6.884;2024-01-15T04:49:04;1.30;99.90
53045;DHT22;38930;52.766;6.884;2024-01-15T04:51:30;1.30;99.90
53045;DHT22;38930;52.766;6.884;2024-01-15T04:53:56;1.20;99.90
53045;DHT22;38930;52.766;6.884;2024-01-15T04:56:21;1.30;99.90
53045;DHT22;38930;52.766;6.884;2024-01-15T04:58:47;1.20;99.90
53045;DHT22;38930;52.766;6.884;2024-01-15T05:01:12;1.20;99.90
53045;DHT22;38930;52.766;6.884;2024-01-15T05:03:38;1.30;99.90
53045;DHT22;38930;52.766;6.884;2024-01-15T05:06:04;1.30;99.90
53045;DHT22;38930;52.766;6.884;2024-01-15T05:08:30;1.30;99.90
53045;DHT22;38930;52.766;6.884;2024-01-15T05:10:56;1.40;99.90
53045;DHT22;38930;52.766;6.884;2024-01-15T05:13:21;1.30;99.90
53045;DHT22;38930;52.766;6.884;2024-01-15T05:15:47;1.40;99.90
53045;DHT22;38930;52.766;6.884;2024-01-15T05:18:13;1.40;99.90
53045;DHT22;38930;52.766;6.884;2024-01-15T05:20:38;1.40;99.90
53045;DHT22;38930;52.766;6.884;2024-01-15T05:23:04;1.40;99.90
53045;DHT22;38930;52.766;6.884;2024-01-15T05:25:29;1.40;99.90
53045;DHT22;38930;52.766;6.884;2024-01-15T05:27:55;1.40;99.90
53045;DHT22;38930;52.766;6.884;2024-01-15T05:30:21;1.40;99.90
53045;DHT22;38930;52.766;6.884;2024-01-15T05:32:46;1.30;99.90
53045;DHT22;38930;52.766;6.884;2024-01-15T05:35:12;1.30;99.90
53045;DHT22;38930;52.766;6.884;2024-01-15T05:37:41;1.30;99.90
53045;DHT22;38930;52.766;6.884;2024-01-15T05:40:07;1.20;99.90
53045;DHT22;38930;52.766;6.884;2024-01-15T05:42:32;1.20;99.90
53045;DHT22;38930;52.766;6.884;2024-01-15T05:44:58;1.20;99.90
53045;DHT22;38930;52.766;6.884;2024-01-15T05:47:25;1.10;99.90
53045;DHT22;38930;52.766;6.884;2024-01-15T05:49:50;1.10;99.90
53045;DHT22;38930;52.766;6.884;2024-01-15T05:52:16;1.20;99.90
53045;DHT22;38930;52.766;6.884;2024-01-15T05:54:42;1.10;99.90
53045;DHT22;38930;52.766;6.884;2024-01-15T05:57:07;1.10;99.90
53045;DHT22;38930;52.766;6.884;2024-01-15T05:59:33;1.10;99.90
53045;DHT22;38930;52.766;6.884;2024-01-15T06:02:01;1.10;99.90
53045;DHT22;38930;52.766;6.884;2024-01-15T06:04:27;1.10;99.90
53045;DHT22;38930;52.766;6.884;2024-01-15T06:06:52;1.10;99.90
53045;DHT22;38930;52.766;6.884;2024-01-15T06:09:18;1.10;99.90
53045;DHT22;38930;52.766;6.884;2024-01-15T06:11:43;1.10;99.90
53045;DHT22;38930;52.766;6.884;2024-01-15T06:14:09;1.10;99.90
53045;DHT22;38930;52.766;6.884;2024-01-15T06:16:34;1.10;99.90
53045;DHT22;38930;52.766;6.884;2024-01-15T06:19:00;1.10;99.90
53045;DHT22;38930;52.766;6.884;2024-01-15T06:21:26;1.10;99.90
53045;DHT22;38930;52.766;6.884;2024-01-15T06:23:51;1.00;99.90
53045;DHT22;38930;52.766;6.884;2024-01-15T06:26:17;1.00;99.90
53045;DHT22;38930;52.766;6.884;2024-01-15T06:28:42;1.00;99.90
53045;DHT22;38930;52.766;6.884;2024-01-15T06:31:08;0.90;99.90
53045;DHT22;38930;52.766;6.884;2024-01-15T06:33:34;0.90;99.90
53045;DHT22;38930;52.766;6.884;2024-01-15T06:35:59;0.90;99.90
53045;DHT22;38930;52.766;6.884;2024-01-15T06:38:25;0.90;99.90
53045;DHT22;38930;52.766;6.884;2024-01-15T06:40:51;0.80;99.90
53045;DHT22;38930;52.766;6.884;2024-01-15T06:43:17;0.80;99.90
53045;DHT22;38930;52.766;6.884;2024-01-15T06:45:43;0.80;99.90
53045;DHT22;38930;52.766;6.884;2024-01-15T06:48:09;0.80;99.90
53045;DHT22;38930;52.766;6.884;2024-01-15T06:50:35;0.80;99.90
53045;DHT22;38930;52.766;6.884;2024-01-15T06:53:01;0.90;99.90
53045;DHT22;38930;52.766;6.884;2024-01-15T06:55:26;0.80;99.90
53045;DHT22;38930;52.766;6.884;2024-01-15T06:57:53;0.80;99.90
53045;DHT22;38930;52.766;6.884;2024-01-15T07:00:18;0.80;99.90
53045;DHT22;38930;52.766;6.884;2024-01-15T07:02:45;0.80;99.90
53045;DHT22;38930;52.766;6.884;2024-01-15T07:05:11;0.80;99.90
53045;DHT22;38930;52.766;6.884;2024-01-15T07:07:36;0.80;99.90
53045;DHT22;38930;52.766;6.884;2024-01-15T07:10:03;0.80;99.90
53045;DHT22;38930;52.766;6.884;2024-01-15T07:12:29;0.80;99.90
53045;DHT22;38930;52.766;6.884;2024-01-15T07:14:56;0.70;99.90
53045;DHT22;38930;52.766;6.884;2024-01-15T07:17:21;0.70;99.90
53045;DHT22;38930;52.766;6.884;2024-01-15T07:19:47;0.70;99.90
53045;DHT22;38930;52.766;6.884;2024-01-15T07:22:13;0.80;99.90
53045;DHT22;38930;52.766;6.884;2024-01-15T07:24:38;0.90;99.90
53045;DHT22;38930;52.766;6.884;2024-01-15T07:27:04;0.80;99.90
53045;DHT22;38930;52.766;6.884;2024-01-15T07:29:30;0.80;99.90
53045;DHT22;38930;52.766;6.884;2024-01-15T07:31:58;0.80;99.90
53045;DHT22;38930;52.766;6.884;2024-01-15T07:34:24;0.80;99.90
53045;DHT22;38930;52.766;6.884;2024-01-15T07:36:49;0.80;99.90
53045;DHT22;38930;52.766;6.884;2024-01-15T07:39:15;0.90;99.90
53045;DHT22;38930;52.766;6.884;2024-01-15T07:41:40;0.90;99.90
53045;DHT22;38930;52.766;6.884;2024-01-15T07:44:06;0.90;99.90
53045;DHT22;38930;52.766;6.884;2024-01-15T07:46:32;0.90;99.90
53045;DHT22;38930;52.766;6.884;2024-01-15T07:48:57;0.80;99.90
53045;DHT22;38930;52.766;6.884;2024-01-15T07:51:23;0.80;99.90
53045;DHT22;38930;52.766;6.884;2024-01-15T07:53:49;1.80;99.90
53045;DHT22;38930;52.766;6.884;2024-01-15T07:56:15;0.80;99.90
53045;DHT22;38930;52.766;6.884;2024-01-15T07:58:41;0.80;99.90
53045;DHT22;38930;52.766;6.884;2024-01-15T08:01:07;0.80;99.90
53045;DHT22;38930;52.766;6.884;2024-01-15T08:03:33;0.80;99.90
53045;DHT22;38930;52.766;6.884;2024-01-15T08:05:59;0.70;99.90
53045;DHT22;38930;52.766;6.884;2024-01-15T08:08:25;0.70;99.90
53045;DHT22;38930;52.766;6.884;2024-01-15T08:10:54;0.70;99.90
53045;DHT22;38930;52.766;6.884;2024-01-15T08:13:20;0.70;99.90
53045;DHT22;38930;52.766;6.884;2024-01-15T08:15:46;0.70;99.90
53045;DHT22;38930;52.766;6.884;2024-01-15T08:18:11;0.70;99.90
53045;DHT22;38930;52.766;6.884;2024-01-15T08:20:37;0.70;99.90
53045;DHT22;38930;52.766;6.884;2024-01-15T08:23:03;0.70;99.90
53045;DHT22;38930;52.766;6.884;2024-01-15T08:25:29;0.70;99.90
53045;DHT22;38930;52.766;6.884;2024-01-15T08:27:56;0.70;99.90
53045;DHT22;38930;52.766;6.884;2024-01-15T08:30:23;0.60;99.90
53045;DHT22;38930;52.766;6.884;2024-01-15T08:32:53;0.60;99.90
53045;DHT22;38930;52.766;6.884;2024-01-15T08:35:19;0.60;99.90
53045;DHT22;38930;52.766;6.884;2024-01-15T08:37:49;0.60;99.90
53045;DHT22;38930;52.766;6.884;2024-01-15T08:40:15;0.60;99.90
53045;DHT22;38930;52.766;6.884;2024-01-15T08:42:41;0.60;99.90
53045;DHT22;38930;52.766;6.884;2024-01-15T08:45:07;0.60;99.90
53045;DHT22;38930;52.766;6.884;2024-01-15T08:47:32;0.70;99.90
53045;DHT22;38930;52.766;6.884;2024-01-15T08:49:58;0.70;99.90
53045;DHT22;38930;52.766;6.884;2024-01-15T08:52:24;0.70;99.90
53045;DHT22;38930;52.766;6.884;2024-01-15T08:54:50;0.90;99.90
53045;DHT22;38930;52.766;6.884;2024-01-15T08:57:16;0.80;99.90
53045;DHT22;38930;52.766;6.884;2024-01-15T08:59:41;0.80;99.90
53045;DHT22;38930;52.766;6.884;2024-01-15T09:02:07;0.80;99.90
53045;DHT22;38930;52.766;6.884;2024-01-15T09:04:33;0.80;99.90
53045;DHT22;38930;52.766;6.884;2024-01-15T09:06:59;0.90;99.90
53045;DHT22;38930;52.766;6.884;2024-01-15T09:09:24;0.90;99.90
53045;DHT22;38930;52.766;6.884;2024-01-15T09:11:51;0.90;99.90
53045;DHT22;38930;52.766;6.884;2024-01-15T09:14:17;1.00;99.90
53045;DHT22;38930;52.766;6.884;2024-01-15T09:16:42;1.00;99.90
53045;DHT22;38930;52.766;6.884;2024-01-15T09:19:08;1.10;99.90
53045;DHT22;38930;52.766;6.884;2024-01-15T09:21:34;1.10;99.90
53045;DHT22;38930;52.766;6.884;2024-01-15T09:23:59;1.10;99.90
53045;DHT22;38930;52.766;6.884;2024-01-15T09:26:25;1.20;99.90
53045;DHT22;38930;52.766;6.884;2024-01-15T09:28:51;1.20;99.90
53045;DHT22;38930;52.766;6.884;2024-01-15T09:31:17;1.20;99.90
53045;DHT22;38930;52.766;6.884;2024-01-15T09:33:43;1.30;99.90
53045;DHT22;38930;52.766;6.884;2024-01-15T09:36:09;1.30;99.90
53045;DHT22;38930;52.766;6.884;2024-01-15T09:38:35;1.30;99.90
53045;DHT22;38930;52.766;6.884;2024-01-15T09:41:00;1.60;99.90
53045;DHT22;38930;52.766;6.884;2024-01-15T09:43:26;1.50;99.90
53045;DHT22;38930;52.766;6.884;2024-01-15T09:45:53;1.50;99.90
53045;DHT22;38930;52.766;6.884;2024-01-15T09:48:19;1.60;99.90
53045;DHT22;38930;52.766;6.884;2024-01-15T09:50:45;1.80;99.90
53045;DHT22;38930;52.766;6.884;2024-01-15T09:53:12;1.70;99.90
53045;DHT22;38930;52.766;6.884;2024-01-15T09:55:41;1.70;99.90
53045;DHT22;38930;52.766;6.884;2024-01-15T09:58:07;1.70;99.90
53045;DHT22;38930;52.766;6.884;2024-01-15T10:00:33;1.70;99.90
53045;DHT22;38930;52.766;6.884;2024-01-15T10:03:03;1.70;99.90
53045;DHT22;38930;52.766;6.884;2024-01-15T10:05:29;1.80;99.90
53045;DHT22;38930;52.766;6.884;2024-01-15T10:07:56;1.70;99.90
53045;DHT22;38930;52.766;6.884;2024-01-15T10:10:23;1.80;99.90
53045;DHT22;38930;52.766;6.884;2024-01-15T10:12:49;1.80;99.90
53045;DHT22;38930;52.766;6.884;2024-01-15T10:15:15;1.80;99.90
53045;DHT22;38930;52.766;6.884;2024-01-15T10:17:41;1.80;99.90
53045;DHT22;38930;52.766;6.884;2024-01-15T10:20:11;1.90;99.90
53045;DHT22;38930;52.766;6.884;2024-01-15T10:22:41;2.00;99.90
53045;DHT22;38930;52.766;6.884;2024-01-15T10:25:14;2.00;99.90
53045;DHT22;38930;52.766;6.884;2024-01-15T10:27:43;2.10;99.90
53045;DHT22;38930;52.766;6.884;2024-01-15T10:30:09;2.10;99.90
53045;DHT22;38930;52.766;6.884;2024-01-15T10:32:35;2.20;99.90
53045;DHT22;38930;52.766;6.884;2024-01-15T10:35:01;2.20;99.90
53045;DHT22;38930;52.766;6.884;2024-01-15T10:37:26;2.20;99.90
53045;DHT22;38930;52.766;6.884;2024-01-15T10:39:52;2.20;99.90
53045;DHT22;38930;52.766;6.884;2024-01-15T10:42:18;2.20;99.90
53045;DHT22;38930;52.766;6.884;2024-01-15T10:44:44;2.20;99.90
53045;DHT22;38930;52.766;6.884;2024-01-15T10:47:12;2.30;99.90
53045;DHT22;38930;52.766;6.884;2024-01-15T10:49:38;2.30;99.90
53045;DHT22;38930;52.766;6.884;2024-01-15T10:52:05;2.30;99.90
53045;DHT22;38930;52.766;6.884;2024-01-15T10:54:32;2.30;99.90
53045;DHT22;38930;52.766;6.884;2024-01-15T10:56:58;2.30;99.90
53045;DHT22;38930;52.766;6.884;2024-01-15T10:59:24;2.30;99.90
53045;DHT22;38930;52.766;6.884;2024-01-15T11:01:51;2.30;99.90
53045;DHT22;38930;52.766;6.884;2024-01-15T11:04:21;3.10;99.90
53045;DHT22;38930;52.766;6.884;2024-01-15T11:06:52;2.30;99.90
53045;DHT22;38930;52.766;6.884;2024-01-15T11:09:22;2.30;99.90
53045;DHT22;38930;52.766;6.884;2024-01-15T11:11:52;2.30;99.90
53045;DHT22;38930;52.766;6.884;2024-01-15T11:14:39;2.30;99.90
53045;DHT22;38930;52.766;6.884;2024-01-15T11:17:05;2.30;99.90
53045;DHT22;38930;52.766;6.884;2024-01-15T11:19:45;2.30;99.90
53045;DHT22;38930;52.766;6.884;2024-01-15T11:24:55;2.40;99.90
53045;DHT22;38930;52.766;6.884;2024-01-15T11:27:46;2.40;99.90
53045;DHT22;38930;52.766;6.884;2024-01-15T11:30:19;2.50;99.90
53045;DHT22;38930;52.766;6.884;2024-01-15T11:32:54;2.60;99.90
53045;DHT22;38930;52.766;6.884;2024-01-15T11:35:19;2.50;99.90
53045;DHT22;38930;52.766;6.884;2024-01-15T11:40:21;2.60;99.90
53045;DHT22;38930;52.766;6.884;2024-01-15T11:42:47;2.50;99.90
53045;DHT22;38930;52.766;6.884;2024-01-15T11:45:18;2.50;99.90
53045;DHT22;38930;52.766;6.884;2024-01-15T11:50:35;2.50;99.90
53045;DHT22;38930;52.766;6.884;2024-01-15T11:53:32;2.50;99.90
53045;DHT22;38930;52.766;6.884;2024-01-15T11:55:58;2.50;99.90
53045;DHT22;38930;52.766;6.884;2024-01-15T11:58:24;3.50;99.90
53045;DHT22;38930;52.766;6.884;2024-01-15T12:00:51;2.50;99.90
53045;DHT22;38930;52.766;6.884;2024-01-15T12:03:20;2.60;99.90
53045;DHT22;38930;52.766;6.884;2024-01-15T12:05:46;2.60;99.90
53045;DHT22;38930;52.766;6.884;2024-01-15T12:08:11;2.60;99.90
53045;DHT22;38930;52.766;6.884;2024-01-15T12:10:41;2.60;99.90
53045;DHT22;38930;52.766;6.884;2024-01-15T12:13:13;2.60;99.90
53045;DHT22;38930;52.766;6.884;2024-01-15T12:15:39;2.50;99.90
53045;DHT22;38930;52.766;6.884;2024-01-15T12:18:09;2.40;99.90
53045;DHT22;38930;52.766;6.884;2024-01-15T12:20:35;2.30;99.90
53045;DHT22;38930;52.766;6.884;2024-01-15T12:23:02;2.20;99.90
53045;DHT22;38930;52.766;6.884;2024-01-15T12:25:31;2.20;99.90
53045;DHT22;38930;52.766;6.884;2024-01-15T12:27:58;2.20;99.90
53045;DHT22;38930;52.766;6.884;2024-01-15T12:30:26;2.10;99.90
53045;DHT22;38930;52.766;6.884;2024-01-15T12:32:51;2.10;99.90
53045;DHT22;38930;52.766;6.884;2024-01-15T12:35:17;2.00;99.90
53045;DHT22;38930;52.766;6.884;2024-01-15T12:37:43;1.90;99.90
53045;DHT22;38930;52.766;6.884;2024-01-15T12:40:12;1.80;99.90
53045;DHT22;38930;52.766;6.884;2024-01-15T12:42:39;1.80;99.90
53045;DHT22;38930;52.766;6.884;2024-01-15T12:45:06;1.70;99.90
53045;DHT22;38930;52.766;6.884;2024-01-15T12:47:32;1.70;99.90
53045;DHT22;38930;52.766;6.884;2024-01-15T12:49:58;1.60;99.90
53045;DHT22;38930;52.766;6.884;2024-01-15T12:52:27;1.60;99.90
53045;DHT22;38930;52.766;6.884;2024-01-15T12:54:53;1.60;99.90
53045;DHT22;38930;52.766;6.884;2024-01-15T12:57:18;1.60;99.90
53045;DHT22;38930;52.766;6.884;2024-01-15T12:59:44;1.60;99.90
53045;DHT22;38930;52.766;6.884;2024-01-15T13:02:14;1.60;99.90
53045;DHT22;38930;52.766;6.884;2024-01-15T13:04:40;1.60;99.90
53045;DHT22;38930;52.766;6.884;2024-01-15T13:07:09;1.60;99.90
53045;DHT22;38930;52.766;6.884;2024-01-15T13:09:35;1.70;99.90
53045;DHT22;38930;52.766;6.884;2024-01-15T13:12:07;2.20;99.90
53045;DHT22;38930;52.766;6.884;2024-01-15T13:14:33;1.70;99.90
53045;DHT22;38930;52.766;6.884;2024-01-15T13:16:59;1.80;99.90
53045;DHT22;38930;52.766;6.884;2024-01-15T13:19:25;1.70;99.90
53045;DHT22;38930;52.766;6.884;2024-01-15T13:21:51;1.70;99.90
53045;DHT22;38930;52.766;6.884;2024-01-15T13:24:17;1.70;99.90
53045;DHT22;38930;52.766;6.884;2024-01-15T13:26:43;1.60;99.90
53045;DHT22;38930;52.766;6.884;2024-01-15T13:29:09;1.60;99.90
53045;DHT22;38930;52.766;6.884;2024-01-15T13:31:34;1.60;99.90
53045;DHT22;38930;52.766;6.884;2024-01-15T13:34:00;1.60;99.90
53045;DHT22;38930;52.766;6.884;2024-01-15T13:36:26;1.70;99.90
53045;DHT22;38930;52.766;6.884;2024-01-15T13:38:53;1.70;99.90
53045;DHT22;38930;52.766;6.884;2024-01-15T13:41:20;1.70;99.90
53045;DHT22;38930;52.766;6.884;2024-01-15T13:43:55;1.70;99.90
53045;DHT22;38930;52.766;6.884;2024-01-15T13:46:24;1.70;99.90
53045;DHT22;38930;52.766;6.884;2024-01-15T13:48:49;1.70;99.90
53045;DHT22;38930;52.766;6.884;2024-01-15T13:51:15;1.80;99.90
53045;DHT22;38930;52.766;6.884;2024-01-15T13:53:40;1.90;99.90
53045;DHT22;38930;52.766;6.884;2024-01-15T13:56:07;2.00;99.90
53045;DHT22;38930;52.766;6.884;2024-01-15T13:58:33;2.00;99.90
53045;DHT22;38930;52.766;6.884;2024-01-15T14:01:00;2.00;99.90
53045;DHT22;38930;52.766;6.884;2024-01-15T14:03:25;1.90;99.90
53045;DHT22;38930;52.766;6.884;2024-01-15T14:05:51;1.90;99.90
53045;DHT22;38930;52.766;6.884;2024-01-15T14:08:17;1.90;99.90
53045;DHT22;38930;52.766;6.884;2024-01-15T14:10:43;1.80;99.90
53045;DHT22;38930;52.766;6.884;2024-01-15T14:13:09;1.80;99.90
53045;DHT22;38930;52.766;6.884;2024-01-15T14:15:35;1.70;99.90
53045;DHT22;38930;52.766;6.884;2024-01-15T14:18:01;1.70;99.90
53045;DHT22;38930;52.766;6.884;2024-01-15T14:20:27;1.60;99.90
53045;DHT22;38930;52.766;6.884;2024-01-15T14:22:53;1.60;99.90
53045;DHT22;38930;52.766;6.884;2024-01-15T14:25:22;1.60;99.90
53045;DHT22;38930;52.766;6.884;2024-01-15T14:27:49;1.60;99.90
53045;DHT22;38930;52.766;6.884;2024-01-15T14:30:15;1.60;99.90
53045;DHT22;38930;52.766;6.884;2024-01-15T14:32:42;1.60;99.90
53045;DHT22;38930;52.766;6.884;2024-01-15T14:35:08;1.70;99.90
53045;DHT22;38930;52.766;6.884;2024-01-15T14:37:36;1.70;99.90
53045;DHT22;38930;52.766;6.884;2024-01-15T14:40:02;1.60;99.90
53045;DHT22;38930;52.766;6.884;2024-01-15T14:42:29;1.60;99.90
53045;DHT22;38930;52.766;6.884;2024-01-15T14:44:55;1.60;99.90
53045;DHT22;38930;52.766;6.884;2024-01-15T14:47:20;1.70;99.90
53045;DHT22;38930;52.766;6.884;2024-01-15T14:49:49;1.70;99.90
53045;DHT22;38930;52.766;6.884;2024-01-15T14:52:15;1.70;99.90
53045;DHT22;38930;52.766;6.884;2024-01-15T14:54:40;1.70;99.90
53045;DHT22;38930;52.766;6.884;2024-01-15T14:57:07;1.70;99.90
53045;DHT22;38930;52.766;6.884;2024-01-15T14:59:32;1.80;99.90
53045;DHT22;38930;52.766;6.884;2024-01-15T15:01:58;1.80;99.90
53045;DHT22;38930;52.766;6.884;2024-01-15T15:04:24;1.80;99.90
53045;DHT22;38930;52.766;6.884;2024-01-15T15:06:49;1.80;99.90
53045;DHT22;38930;52.766;6.884;2024-01-15T15:09:15;1.90;99.90
53045;DHT22;38930;52.766;6.884;2024-01-15T15:11:41;1.90;99.90
53045;DHT22;38930;52.766;6.884;2024-01-15T15:14:06;1.90;99.90
53045;DHT22;38930;52.766;6.884;2024-01-15T15:16:32;1.90;99.90
53045;DHT22;38930;52.766;6.884;2024-01-15T15:18:58;2.00;99.90
53045;DHT22;38930;52.766;6.884;2024-01-15T15:21:23;1.90;99.90
53045;DHT22;38930;52.766;6.884;2024-01-15T15:23:49;1.80;99.90
53045;DHT22;38930;52.766;6.884;2024-01-15T15:26:15;1.80;99.90
53045;DHT22;38930;52.766;6.884;2024-01-15T15:28:40;1.70;99.90
53045;DHT22;38930;52.766;6.884;2024-01-15T15:31:06;1.60;99.90
53045;DHT22;38930;52.766;6.884;2024-01-15T15:33:38;1.70;99.90
53045;DHT22;38930;52.766;6.884;2024-01-15T15:36:04;1.60;99.90
53045;DHT22;38930;52.766;6.884;2024-01-15T15:38:31;1.60;99.90
53045;DHT22;38930;52.766;6.884;2024-01-15T15:40:57;1.60;99.90
53045;DHT22;38930;52.766;6.884;2024-01-15T15:43:23;1.50;99.90
53045;DHT22;38930;52.766;6.884;2024-01-15T15:45:48;1.50;99.90
53045;DHT22;38930;52.766;6.884;2024-01-15T15:48:14;1.50;99.90